Time;durP1;ratioP1;P1;durP2;ratioP2;P2;SDS_P1;SDS_P2;PMS_P1;PMS_P2;Temp;Humidity;BMP_temperature;BMP_pressure;BME280_temperature;BME280_humidity;BME280_pressure;Samples;Min_cycle;Max_cycle;Signal;HPM_P1;HPM_P2
2022/04/01 00:05:45;;;;;;;;;;;;;;;22.59;48.44;97864.25;20716239;27;101616;-83
2022/04/01 00:15:46;;;;;;;;;;;;;;;22.58;48.46;97868.69;20712846;27;97507;-84
2022/04/01 00:25:46;;;;;;;;;;;;;;;22.58;48.34;97862.63;20714880;27;101775;-85
2022/04/01 00:35:47;;;;;;;;;;;;;;;22.57;48.50;97863.63;20713614;27;97673;-85
2022/04/01 00:45:47;;;;;;;;;;;;;;;22.55;48.18;97845.34;20702429;27;98168;-84
2022/04/01 00:55:49;;;;;;;;;;;;;;;22.53;48.19;97839.44;20721257;27;99301;-82
2022/04/01 01:05:50;;;;;;;;;;;;;;;22.52;48.47;97843.09;20705316;27;101349;-84
2022/04/01 01:15:52;;;;;;;;;;;;;;;22.52;48.12;97851.81;20716014;27;97137;-83
2022/04/01 01:25:52;;;;;;;;;;;;;;;22.51;48.31;97844.91;20715878;27;97627;-83
2022/04/01 01:35:53;;;;;;;;;;;;;;;22.48;48.51;97839.19;20723372;27;97978;-85
2022/04/01 01:45:53;;;;;;;;;;;;;;;22.47;48.36;97842.84;20714729;27;100088;-83
2022/04/01 01:55:54;;;;;;;;;;;;;;;22.45;48.49;97848.31;20716412;27;97220;-85
2022/04/01 02:05:54;;;;;;;;;;;;;;;22.45;48.29;97837.75;20715943;27;97363;-83
2022/04/01 02:15:55;;;;;;;;;;;;;;;22.45;48.22;97829.03;20713836;27;97700;-85
2022/04/01 02:25:56;;;;;;;;;;;;;;;22.43;48.19;97823.13;20707005;27;96931;-85
2022/04/01 02:35:58;;;;;;;;;;;;;;;22.42;48.41;97817.03;20711587;27;101412;-85
2022/04/01 02:45:58;;;;;;;;;;;;;;;22.40;48.40;97813.78;20708095;27;97961;-85
2022/04/01 02:55:58;;;;;;;;;;;;;;;22.38;48.42;97784.97;20707969;27;101640;-85
2022/04/01 03:06:00;;;;;;;;;;;;;;;22.37;48.49;97790.41;20708305;27;98619;-85
2022/04/01 03:16:04;;;;;;;;;;;;;;;22.35;48.32;97802.94;20708341;27;97444;-83
2022/04/01 03:26:04;;;;;;;;;;;;;;;22.35;48.28;97797.66;20710143;27;100949;-84
2022/04/01 03:36:08;;;;;;;;;;;;;;;22.32;48.44;97819.97;20710137;27;97292;-86
2022/04/01 03:46:11;;;;;;;;;;;;;;;22.32;48.06;97793.59;20720287;27;98428;-85
2022/04/01 03:56:12;;;;;;;;;;;;;;;22.30;48.36;97797.44;20725652;27;98381;-85
2022/04/01 04:06:16;;;;;;;;;;;;;;;22.30;48.13;97800.91;20708314;27;99659;-83
2022/04/01 04:16:36;;;;;;;;;;;;;;;22.31;48.79;97788.53;20721252;27;98307;-82
2022/04/01 04:26:47;;;;;;;;;;;;;;;22.32;48.55;97793.59;20705546;27;97398;-79
2022/04/01 04:36:50;;;;;;;;;;;;;;;22.46;49.70;97752.38;20685819;27;97790;-77
2022/04/01 04:46:50;;;;;;;;;;;;;;;22.51;49.79;97765.00;20703245;27;97056;-76
2022/04/01 04:56:52;;;;;;;;;;;;;;;22.54;48.20;97777.78;20696036;27;98032;-77
2022/04/01 05:07:10;;;;;;;;;;;;;;;22.52;49.59;97799.09;20710394;27;97305;-77
2022/04/01 05:17:15;;;;;;;;;;;;;;;22.57;49.33;97787.13;20688708;27;97429;-78
2022/04/01 05:27:15;;;;;;;;;;;;;;;22.55;49.34;97814.50;20697559;27;97144;-76
2022/04/01 05:37:17;;;;;;;;;;;;;;;22.48;48.76;97795.19;20679714;27;100336;-74
2022/04/01 05:47:20;;;;;;;;;;;;;;;22.53;48.82;97802.53;20691994;27;96986;-75
2022/04/01 05:57:20;;;;;;;;;;;;;;;22.54;49.09;97793.63;20686778;27;97461;-75
2022/04/01 06:07:31;;;;;;;;;;;;;;;22.52;49.12;97796.44;20695608;27;98048;-75
2022/04/01 06:17:44;;;;;;;;;;;;;;;22.54;49.02;97802.34;20686162;27;100110;-75
2022/04/01 06:27:46;;;;;;;;;;;;;;;22.54;48.88;97793.63;20694770;27;97769;-76
2022/04/01 06:38:03;;;;;;;;;;;;;;;22.53;49.00;97798.09;20677291;27;97543;-74
2022/04/01 06:48:04;;;;;;;;;;;;;;;22.53;48.86;97800.72;20689133;27;97526;-76
2022/04/01 06:58:11;;;;;;;;;;;;;;;22.52;48.70;97809.63;20672171;27;98812;-73
2022/04/01 07:08:11;;;;;;;;;;;;;;;22.51;48.74;97823.81;20695606;27;97536;-73
2022/04/01 07:18:12;;;;;;;;;;;;;;;22.51;48.43;97812.47;20692264;27;97841;-73
2022/04/01 07:28:13;;;;;;;;;;;;;;;22.49;48.54;97820.53;20690868;27;96933;-73
2022/04/01 07:38:14;;;;;;;;;;;;;;;22.48;48.49;97805.72;20694702;27;97478;-73
2022/04/01 07:48:14;;;;;;;;;;;;;;;22.44;47.99;97807.13;20687225;27;97032;-73
2022/04/01 07:58:15;;;;;;;;;;;;;;;22.46;48.21;97806.94;20676330;27;97337;-73
2022/04/01 08:08:16;;;;;;;;;;;;;;;22.48;48.20;97811.00;20687004;27;98614;-74
2022/04/01 08:18:16;;;;;;;;;;;;;;;22.49;48.51;97825.81;20667291;27;102266;-74
2022/04/01 08:28:16;;;;;;;;;;;;;;;22.52;48.31;97838.63;20687096;27;97116;-73
2022/04/01 08:38:17;;;;;;;;;;;;;;;22.53;48.39;97850.00;20684906;27;102187;-73
2022/04/01 08:48:17;;;;;;;;;;;;;;;22.54;48.31;97870.09;20694064;27;97475;-74
2022/04/01 08:58:19;;;;;;;;;;;;;;;22.53;48.24;97877.19;20691785;27;98650;-74
2022/04/01 09:08:24;;;;;;;;;;;;;;;22.54;48.21;97883.28;20699306;27;98553;-73
2022/04/01 09:18:44;;;;;;;;;;;;;;;22.54;47.82;97897.28;20689536;27;97885;-74
2022/04/01 09:28:45;;;;;;;;;;;;;;;22.58;47.85;97892.44;20682545;27;102558;-73
2022/04/01 09:38:57;;;;;;;;;;;;;;;22.58;47.64;97895.06;20682081;27;97444;-74
2022/04/01 09:49:01;;;;;;;;;;;;;;;22.59;47.63;97899.34;20694349;27;97120;-74
2022/04/01 09:59:02;;;;;;;;;;;;;;;22.60;47.33;97910.72;20701787;27;98941;-73
2022/04/01 10:09:05;;;;;;;;;;;;;;;22.62;47.07;97912.16;20692659;27;97808;-74
2022/04/01 10:19:09;;;;;;;;;;;;;;;22.62;46.99;97908.69;20694982;27;97719;-75
2022/04/01 10:29:11;;;;;;;;;;;;;;;22.63;46.70;97931.44;20690870;27;108270;-74
2022/04/01 10:39:11;;;;;;;;;;;;;;;22.65;46.72;97943.44;20686525;27;98557;-72
2022/04/01 10:59:39;;;;;;;;;;;;;;;22.69;46.31;97951.78;20657505;27;97026;-75
2022/04/01 11:09:50;;;;;;;;;;;;;;;22.71;46.21;97958.50;20627507;27;98417;-75
2022/04/01 11:20:00;;;;;;;;;;;;;;;22.75;46.49;97971.31;20640781;27;98700;-74
2022/04/01 11:30:09;;;;;;;;;;;;;;;22.79;46.91;97969.94;20635138;27;98055;-75
2022/04/01 11:40:13;;;;;;;;;;;;;;;22.78;47.13;97974.41;20646775;27;99048;-75
2022/04/01 11:50:15;;;;;;;;;;;;;;;22.78;46.98;97974.41;20640648;27;100542;-75
2022/04/01 12:00:17;;;;;;;;;;;;;;;22.78;46.70;97976.25;20657134;27;99882;-76
2022/04/01 12:10:18;;;;;;;;;;;;;;;22.79;46.58;97975.22;20644466;27;100861;-76
2022/04/01 12:20:20;;;;;;;;;;;;;;;22.84;46.25;97983.41;20646689;27;100002;-79
2022/04/01 12:30:27;;;;;;;;;;;;;;;22.82;45.36;97985.41;20652866;27;99318;-80
2022/04/01 12:40:33;;;;;;;;;;;;;;;22.88;45.61;97997.84;20718372;27;98853;-79
2022/04/01 12:50:35;;;;;;;;;;;;;;;22.91;45.73;98009.84;20686700;27;97785;-81
2022/04/01 13:00:35;;;;;;;;;;;;;;;22.94;46.40;98012.94;20705718;27;98457;-79
2022/04/01 13:10:36;;;;;;;;;;;;;;;22.98;46.48;98023.91;20714756;27;101060;-77
2022/04/01 13:20:38;;;;;;;;;;;;;;;23.00;46.26;98035.91;20705859;27;96987;-77
2022/04/01 13:30:38;;;;;;;;;;;;;;;22.98;46.27;98052.94;20714222;27;96904;-77
2022/04/01 13:40:39;;;;;;;;;;;;;;;22.99;46.43;98051.94;20721331;27;98805;-76
2022/04/01 13:50:40;;;;;;;;;;;;;;;23.03;46.31;98040.84;20714808;27;98386;-77
2022/04/01 14:00:41;;;;;;;;;;;;;;;23.03;46.22;98053.19;20709975;27;98661;-76
2022/04/01 14:10:41;;;;;;;;;;;;;;;23.01;46.21;98071.06;20707487;27;98285;-76
2022/04/01 14:20:41;;;;;;;;;;;;;;;22.99;46.26;98081.78;20708639;27;101045;-77
2022/04/01 14:30:43;;;;;;;;;;;;;;;22.99;46.50;98091.53;20692300;27;106404;-77
2022/04/01 14:40:43;;;;;;;;;;;;;;;22.96;46.39;98102.44;20703813;27;101955;-78
2022/04/01 14:50:44;;;;;;;;;;;;;;;22.95;46.34;98112.22;20704844;27;97020;-77
2022/04/01 15:00:45;;;;;;;;;;;;;;;22.93;46.45;98108.94;20694156;27;100424;-76
2022/04/01 15:10:45;;;;;;;;;;;;;;;22.81;40.32;98110.41;20705738;27;97201;-78
2022/04/01 15:20:46;;;;;;;;;;;;;;;22.68;39.17;98127.72;20691288;27;97660;-77
2022/04/01 15:30:46;;;;;;;;;;;;;;;22.60;40.08;98125.16;20721053;27;97981;-77
2022/04/01 15:40:48;;;;;;;;;;;;;;;22.63;42.61;98138.00;20730343;27;101721;-78
2022/04/01 15:50:49;;;;;;;;;;;;;;;22.63;43.40;98131.91;20701990;27;99608;-76
2022/04/01 16:00:50;;;;;;;;;;;;;;;22.65;43.90;98140.47;20689003;27;99313;-77
2022/04/01 16:10:51;;;;;;;;;;;;;;;22.55;43.99;98156.56;20701619;27;97004;-78
2022/04/01 16:20:56;;;;;;;;;;;;;;;22.61;44.31;98163.75;20685724;27;100950;-76
2022/04/01 16:30:56;;;;;;;;;;;;;;;22.70;46.24;98177.66;20689450;27;101056;-77
2022/04/01 16:40:57;;;;;;;;;;;;;;;22.75;47.07;98191.09;20676786;27;101232;-76
2022/04/01 16:50:58;;;;;;;;;;;;;;;22.77;46.72;98197.03;20682105;27;97581;-74
2022/04/01 17:00:59;;;;;;;;;;;;;;;22.75;46.80;98188.47;20683595;27;97676;-74
2022/04/01 17:21:19;;;;;;;;;;;;;;;22.96;46.40;98211.50;20655938;27;100067;-75
2022/04/01 17:31:20;;;;;;;;;;;;;;;22.99;46.02;98211.09;20664123;27;97690;-75
2022/04/01 17:41:23;;;;;;;;;;;;;;;23.04;45.78;98213.22;20657825;27;100874;-75
2022/04/01 17:51:23;;;;;;;;;;;;;;;23.08;45.82;98235.59;20662765;27;99012;-74
2022/04/01 18:01:24;;;;;;;;;;;;;;;23.08;45.89;98227.66;20690006;27;97419;-75
2022/04/01 18:11:25;;;;;;;;;;;;;;;23.11;45.44;98239.69;20676367;27;97859;-75
2022/04/01 18:21:25;;;;;;;;;;;;;;;23.15;45.72;98247.03;20676646;27;98387;-73
2022/04/01 18:31:31;;;;;;;;;;;;;;;23.12;45.38;98262.44;20689370;27;97043;-74
2022/04/01 18:41:33;;;;;;;;;;;;;;;23.14;45.18;98268.34;20673459;27;97873;-74
2022/04/01 18:51:34;;;;;;;;;;;;;;;23.13;45.43;98272.81;20681907;27;98169;-75
2022/04/01 19:01:45;;;;;;;;;;;;;;;23.14;45.94;98292.94;20675366;27;97874;-74
2022/04/01 19:11:51;;;;;;;;;;;;;;;23.14;46.00;98298.22;20685133;27;98064;-73
2022/04/01 19:22:09;;;;;;;;;;;;;;;23.12;46.19;98316.06;20670978;27;103963;-74
2022/04/01 19:32:11;;;;;;;;;;;;;;;23.14;46.33;98337.84;20668946;27;96878;-75
2022/04/01 19:42:12;;;;;;;;;;;;;;;23.09;45.62;98347.28;20675781;27;101737;-74
2022/04/01 19:52:14;;;;;;;;;;;;;;;22.86;44.58;98350.78;20655650;27;98504;-74
2022/04/01 20:02:14;;;;;;;;;;;;;;;22.84;44.99;98364.19;20701414;27;97017;-73
2022/04/01 20:12:15;;;;;;;;;;;;;;;22.80;45.28;98375.25;20697921;27;97600;-73
2022/04/01 20:22:15;;;;;;;;;;;;;;;22.75;45.18;98386.34;20693632;27;97332;-74
2022/04/01 20:32:15;;;;;;;;;;;;;;;22.67;45.42;98389.88;20718004;27;97376;-74
2022/04/01 20:42:16;;;;;;;;;;;;;;;22.63;45.39;98382.50;20713665;27;101008;-74
2022/04/01 20:52:16;;;;;;;;;;;;;;;22.54;45.04;98384.38;20719392;27;98355;-73
2022/04/01 21:02:17;;;;;;;;;;;;;;;22.47;44.95;98396.63;20697985;27;98704;-73
2022/04/01 21:12:20;;;;;;;;;;;;;;;22.38;44.94;98401.94;20701002;27;97300;-73
2022/04/01 21:22:20;;;;;;;;;;;;;;;22.31;45.13;98418.63;20690332;27;98798;-73
2022/04/01 21:32:20;;;;;;;;;;;;;;;22.30;45.52;98417.81;20679455;27;99212;-73
2022/04/01 21:42:24;;;;;;;;;;;;;;;22.27;45.15;98409.44;20669058;27;97253;-73
2022/04/01 21:52:24;;;;;;;;;;;;;;;22.21;45.39;98422.28;20676239;27;101293;-73
2022/04/01 22:02:25;;;;;;;;;;;;;;;22.18;45.04;98421.81;20678747;27;97982;-74
2022/04/01 22:12:26;;;;;;;;;;;;;;;22.16;44.91;98414.09;20685354;27;100370;-74
2022/04/01 22:22:26;;;;;;;;;;;;;;;22.14;45.21;98415.25;20676337;27;97389;-74
2022/04/01 22:32:27;;;;;;;;;;;;;;;22.15;45.49;98411.63;20676960;27;100898;-72
2022/04/01 22:42:28;;;;;;;;;;;;;;;22.13;44.95;98414.44;20673937;27;97058;-73
2022/04/01 22:52:30;;;;;;;;;;;;;;;22.11;44.87;98431.44;20673595;27;99029;-73
2022/04/01 23:02:31;;;;;;;;;;;;;;;22.07;44.69;98431.75;20671582;27;97666;-74
2022/04/01 23:12:33;;;;;;;;;;;;;;;22.09;44.89;98428.94;20677698;27;97064;-74
2022/04/01 23:22:34;;;;;;;;;;;;;;;22.03;44.86;98411.19;20673008;27;97509;-74
2022/04/01 23:32:35;;;;;;;;;;;;;;;22.03;44.86;98427.00;20667582;27;97676;-73
2022/04/01 23:42:35;;;;;;;;;;;;;;;22.01;44.59;98439.53;20667388;27;98212;-73
2022/04/01 23:52:36;;;;;;;;;;;;;;;21.95;44.56;98433.13;20678821;27;97567;-73
